YBCG

Coolangatta/Gold Coast Airport

Airport
ICAO code
YBCG
IATA Code
OOL
Summary
ICAO Region
APAC
ICAO Territory
Location

Coolangatta, Queensland

Serving
Coolangatta
Elevation
21 ft
Coordinates
28° 9' 54" S , 153° 30' 35" E
KCC
Cfa
Metar
Observation
YBCG 171330Z AUTO 23004KT 9999 // NCD 09/08 Q1018 RF00.0/000.0
Station
Coolangatta Airport Aws
Date/Time
2022-08-17 13:30:00
Wind direction
230°
Wind speed
04 kts
Lowest cloud amount
no clouds detected
Temperature
9°C
Dew point
8°C
Humidity
93%
QNH
1018 hPa
Weather condition
n/a

Serves the city of Coolangatta.

Climatology

Humid “subtropical” climate (Köppen climate classification Cfa) - characterized by hot, humid summers and cool winters. Significant amounts of precipitation occur in all seasons in most areas. Winter rainfall (and sometimes snowfall) is associated with large storms that the westerlies steer from west to east. Most summer rainfall occurs during thunderstorms and occasional tropical storms (hurricanes).

SKYbrary Partners:

Safety knowledge contributed by: